Time;durP1;ratioP1;P1;durP2;ratioP2;P2;SDS_P1;SDS_P2;PMS_P1;PMS_P2;Temp;Humidity;BMP_temperature;BMP_pressure;BME280_temperature;BME280_humidity;BME280_pressure;Samples;Min_cycle;Max_cycle;Signal;HPM_P1;HPM_P2
2021/11/04 00:00:18;;;;;;;39.40;28.80;;;6.90;99.90;;;;;;5078736;28;20481;-59
2021/11/04 00:02:47;;;;;;;41.03;29.13;;;6.90;99.90;;;;;;5079305;28;20468;-59
2021/11/04 00:05:17;;;;;;;39.20;28.27;;;6.90;99.90;;;;;;5079069;28;20515;-59
2021/11/04 00:07:45;;;;;;;40.23;27.00;;;6.90;99.90;;;;;;5078714;28;20913;-60
2021/11/04 00:10:12;;;;;;;41.87;28.83;;;6.80;99.90;;;;;;5078875;28;20465;-59
2021/11/04 00:12:40;;;;;;;41.83;29.70;;;6.80;99.90;;;;;;5078944;28;20496;-60
2021/11/04 00:15:08;;;;;;;41.00;28.20;;;6.80;99.90;;;;;;5078578;28;20467;-60
2021/11/04 00:17:36;;;;;;;40.57;27.47;;;6.90;99.90;;;;;;5078655;28;20478;-60
2021/11/04 00:20:05;;;;;;;37.20;25.90;;;6.80;99.90;;;;;;5078749;28;20465;-59
2021/11/04 00:22:32;;;;;;;39.83;26.43;;;6.70;99.90;;;;;;5078589;28;20465;-60
2021/11/04 00:24:59;;;;;;;39.17;27.83;;;6.70;99.90;;;;;;5078996;28;20468;-59
2021/11/04 00:27:26;;;;;;;44.30;28.50;;;6.70;99.90;;;;;;5079100;28;20431;-59
2021/11/04 00:29:54;;;;;;;40.27;27.70;;;6.70;99.90;;;;;;5078480;28;20465;-60
2021/11/04 00:32:21;;;;;;;42.13;28.20;;;6.80;99.90;;;;;;5078498;28;20461;-58
2021/11/04 00:34:48;;;;;;;38.60;26.80;;;6.70;99.90;;;;;;5078320;28;20465;-60
2021/11/04 00:37:23;;;;;;;42.77;28.73;;;6.70;99.90;;;;;;5078328;28;20489;-59
2021/11/04 00:39:50;;;;;;;46.60;27.37;;;6.60;99.90;;;;;;5078295;28;20755;-60
2021/11/04 00:42:17;;;;;;;47.23;30.37;;;6.70;99.90;;;;;;5078501;28;20461;-60
2021/11/04 00:44:44;;;;;;;41.70;28.87;;;6.60;99.90;;;;;;5078185;28;20469;-60
2021/11/04 00:47:11;;;;;;;43.93;29.00;;;6.60;99.90;;;;;;5078062;28;20468;-60
2021/11/04 00:49:41;;;;;;;44.83;30.17;;;6.60;99.90;;;;;;5078322;28;20471;-60
2021/11/04 00:52:08;;;;;;;42.40;29.67;;;6.70;99.90;;;;;;5077642;28;20519;-59
2021/11/04 00:54:36;;;;;;;47.13;30.57;;;6.60;99.90;;;;;;5077806;28;20526;-60
2021/11/04 00:57:04;;;;;;;44.73;28.97;;;6.60;99.90;;;;;;5077851;28;20489;-60
2021/11/04 00:59:31;;;;;;;48.97;29.30;;;6.60;99.90;;;;;;5077456;28;20465;-59
2021/11/04 01:02:01;;;;;;;44.93;30.10;;;6.60;99.90;;;;;;5077932;28;20818;-59
2021/11/04 01:04:28;;;;;;;44.43;31.40;;;6.70;99.90;;;;;;5077411;28;20520;-56
2021/11/04 01:06:55;;;;;;;50.43;32.77;;;6.70;99.90;;;;;;5077548;28;20464;-59
2021/11/04 01:09:24;;;;;;;48.87;33.23;;;6.70;99.90;;;;;;5077600;28;20461;-58
2021/11/04 01:11:53;;;;;;;51.53;33.50;;;6.70;99.90;;;;;;5078006;28;20535;-60
2021/11/04 01:14:23;;;;;;;47.30;32.00;;;6.70;99.90;;;;;;5077402;28;20480;-60
2021/11/04 01:16:50;;;;;;;57.30;33.93;;;6.60;99.90;;;;;;5077469;28;20492;-60
2021/11/04 01:19:19;;;;;;;54.63;34.83;;;6.70;99.90;;;;;;5077245;28;20472;-59
2021/11/04 01:21:46;;;;;;;51.53;35.10;;;6.60;99.90;;;;;;5077230;28;20515;-59
2021/11/04 01:24:13;;;;;;;55.40;33.30;;;6.60;99.90;;;;;;5077272;28;20461;-59
2021/11/04 01:26:40;;;;;;;45.30;30.90;;;6.60;99.90;;;;;;5077502;28;20813;-58
2021/11/04 01:29:09;;;;;;;55.47;34.90;;;6.60;99.90;;;;;;5077440;28;20506;-60
2021/11/04 01:31:36;;;;;;;44.03;29.70;;;6.60;99.90;;;;;;5077113;28;20506;-60
2021/11/04 01:34:08;;;;;;;48.67;31.77;;;6.60;99.90;;;;;;5077738;28;20461;-60
2021/11/04 01:36:35;;;;;;;51.53;32.10;;;6.60;99.90;;;;;;5077256;28;20495;-60
2021/11/04 01:39:05;;;;;;;46.70;31.20;;;6.50;99.90;;;;;;5077140;28;20465;-60
2021/11/04 01:41:32;;;;;;;49.00;30.20;;;6.50;99.90;;;;;;5077573;28;20461;-59
2021/11/04 01:43:59;;;;;;;52.37;31.03;;;6.50;99.90;;;;;;5077283;28;20485;-60
2021/11/04 01:46:28;;;;;;;44.17;29.27;;;6.60;99.90;;;;;;5076869;28;20465;-60
2021/11/04 01:48:55;;;;;;;47.30;30.00;;;6.60;99.90;;;;;;5076948;28;20461;-60
2021/11/04 01:51:23;;;;;;;46.50;29.60;;;6.50;99.90;;;;;;5077319;28;20933;-60
2021/11/04 01:53:53;;;;;;;45.83;30.33;;;6.60;99.90;;;;;;5077651;28;20489;-60
2021/11/04 01:56:20;;;;;;;49.20;31.37;;;6.50;99.90;;;;;;5076892;28;20514;-59
2021/11/04 01:58:47;;;;;;;49.77;31.30;;;6.50;99.90;;;;;;5076931;28;20461;-59
2021/11/04 02:01:16;;;;;;;46.50;30.67;;;6.50;99.90;;;;;;5086371;28;20481;-58
2021/11/04 02:03:52;;;;;;;47.60;30.30;;;6.50;99.90;;;;;;5097527;28;20464;-59
2021/11/04 02:06:31;;;;;;;45.57;29.60;;;6.50;99.90;;;;;;5089318;28;20460;-59
2021/11/04 02:09:03;;;;;;;48.23;32.90;;;6.40;99.90;;;;;;5077028;28;20447;-59
2021/11/04 02:11:35;;;;;;;51.30;30.70;;;6.40;99.90;;;;;;5077089;28;20468;-60
2021/11/04 02:14:07;;;;;;;50.33;32.77;;;6.40;99.90;;;;;;5077807;28;20466;-59
2021/11/04 02:16:39;;;;;;;49.57;31.53;;;6.50;99.90;;;;;;5076877;28;20465;-59
2021/11/04 02:19:17;;;;;;;47.53;29.37;;;6.50;99.90;;;;;;5077492;28;20530;-59
2021/11/04 02:21:59;;;;;;;46.60;31.03;;;6.50;99.90;;;;;;5076874;28;20461;-59
2021/11/04 02:24:34;;;;;;;48.93;32.03;;;6.50;99.90;;;;;;5076690;28;20461;-59
2021/11/04 02:27:04;;;;;;;45.83;31.10;;;6.50;99.90;;;;;;5076628;28;20466;-59
2021/11/04 02:29:33;;;;;;;50.20;32.13;;;6.50;99.90;;;;;;5076585;28;20511;-57
2021/11/04 02:32:00;;;;;;;49.07;29.60;;;6.40;99.90;;;;;;5079104;28;20720;-57
2021/11/04 02:34:28;;;;;;;50.17;32.00;;;6.40;99.90;;;;;;5081163;28;20523;-60
2021/11/04 02:36:56;;;;;;;54.20;33.07;;;6.50;99.90;;;;;;5080307;28;20962;-58
2021/11/04 02:39:27;;;;;;;48.00;32.47;;;6.50;99.90;;;;;;5080549;28;20472;-59
2021/11/04 02:41:54;;;;;;;48.17;30.87;;;6.50;99.90;;;;;;5080432;28;20499;-59
2021/11/04 02:44:25;;;;;;;45.80;30.07;;;6.50;99.90;;;;;;5080929;28;20522;-60
2021/11/04 02:46:54;;;;;;;55.53;34.20;;;6.50;99.90;;;;;;5080831;28;20465;-58
2021/11/04 02:49:24;;;;;;;45.23;29.67;;;6.50;99.90;;;;;;5080461;28;20484;-60
2021/11/04 02:51:52;;;;;;;49.23;31.80;;;6.50;99.90;;;;;;5080593;28;20456;-60
2021/11/04 02:54:19;;;;;;;47.10;29.77;;;6.40;99.90;;;;;;5080522;28;20510;-60
2021/11/04 02:56:49;;;;;;;48.13;31.17;;;6.40;99.90;;;;;;5080865;28;20510;-60
2021/11/04 02:59:17;;;;;;;44.20;29.00;;;6.40;99.90;;;;;;5080105;28;20461;-60
2021/11/04 03:01:49;;;;;;;48.67;31.03;;;6.40;99.90;;;;;;5093396;28;20486;-60
2021/11/04 03:04:17;;;;;;;47.30;29.37;;;6.50;99.90;;;;;;5100861;28;20467;-60
2021/11/04 03:06:44;;;;;;;43.00;28.23;;;6.50;99.90;;;;;;5089575;28;20453;-60
2021/11/04 03:09:12;;;;;;;51.67;30.40;;;6.50;99.90;;;;;;5080130;28;20518;-60
2021/11/04 03:11:39;;;;;;;43.67;29.33;;;6.50;99.90;;;;;;5080385;28;20875;-60
2021/11/04 03:14:07;;;;;;;47.07;29.40;;;6.50;99.90;;;;;;5080162;28;20507;-60
2021/11/04 03:16:37;;;;;;;45.80;29.80;;;6.50;99.90;;;;;;5080313;28;20551;-59
2021/11/04 03:19:08;;;;;;;46.83;31.00;;;6.40;99.90;;;;;;5080500;28;20467;-59
2021/11/04 03:21:38;;;;;;;48.50;30.60;;;6.40;99.90;;;;;;5079851;28;20819;-60
2021/11/04 03:24:09;;;;;;;46.37;28.80;;;6.40;99.90;;;;;;5080362;28;20469;-59
2021/11/04 03:26:43;;;;;;;47.13;29.40;;;6.40;99.90;;;;;;5079978;28;20461;-59
2021/11/04 03:29:11;;;;;;;50.30;31.67;;;6.40;99.90;;;;;;5079707;28;20457;-59
2021/11/04 03:31:39;;;;;;;56.90;33.07;;;6.50;99.90;;;;;;5079444;28;20526;-60
2021/11/04 03:34:09;;;;;;;52.63;31.33;;;6.40;99.90;;;;;;5080195;28;20511;-60
2021/11/04 03:36:37;;;;;;;53.13;33.70;;;6.40;99.90;;;;;;5080030;28;20461;-60
2021/11/04 03:39:05;;;;;;;60.23;36.33;;;6.40;99.90;;;;;;5079821;28;20489;-60
2021/11/04 03:41:34;;;;;;;59.10;34.47;;;6.40;99.90;;;;;;5079507;28;20511;-58
2021/11/04 03:44:02;;;;;;;60.87;34.23;;;6.40;99.90;;;;;;5078819;28;20504;-58
2021/11/04 03:46:31;;;;;;;64.77;37.97;;;6.40;99.90;;;;;;5079785;28;20465;-59
2021/11/04 03:48:59;;;;;;;58.30;34.80;;;6.40;99.90;;;;;;5079985;28;20458;-60
2021/11/04 03:51:27;;;;;;;62.60;35.80;;;6.40;99.90;;;;;;5079281;28;20960;-60
2021/11/04 03:53:54;;;;;;;58.70;36.07;;;6.30;99.90;;;;;;5079471;28;20522;-60
2021/11/04 03:56:22;;;;;;;63.97;36.73;;;6.30;99.90;;;;;;5078854;28;20461;-60
2021/11/04 03:58:50;;;;;;;66.10;37.03;;;6.30;99.90;;;;;;5079442;28;20543;-59
2021/11/04 04:01:17;;;;;;;64.10;36.30;;;6.30;99.90;;;;;;5088140;28;20488;-59
2021/11/04 04:03:44;;;;;;;64.80;36.83;;;6.30;99.90;;;;;;5099331;28;20460;-59
2021/11/04 04:06:12;;;;;;;59.53;37.43;;;6.20;99.90;;;;;;5093173;28;20902;-58
2021/11/04 04:08:48;;;;;;;58.80;35.20;;;6.30;99.90;;;;;;5079419;28;20800;-58
2021/11/04 04:11:16;;;;;;;68.07;37.87;;;6.30;99.90;;;;;;5078536;28;20559;-59
2021/11/04 04:13:43;;;;;;;67.23;38.47;;;6.30;99.90;;;;;;5079006;28;20488;-59
2021/11/04 04:16:10;;;;;;;69.77;39.00;;;6.30;99.90;;;;;;5078894;28;20515;-59
2021/11/04 04:18:38;;;;;;;68.97;38.40;;;6.20;99.90;;;;;;5079292;28;20471;-58
2021/11/04 04:21:05;;;;;;;68.73;38.20;;;6.20;99.90;;;;;;5079072;28;20453;-59
2021/11/04 04:23:31;;;;;;;64.30;35.97;;;6.10;99.90;;;;;;5078758;28;20530;-59
2021/11/04 04:26:00;;;;;;;69.97;36.30;;;6.10;99.90;;;;;;5078915;28;20461;-59
2021/11/04 04:28:27;;;;;;;65.10;36.77;;;6.20;99.90;;;;;;5078980;28;20457;-58
2021/11/04 04:30:54;;;;;;;66.00;36.30;;;6.10;99.90;;;;;;5079150;28;20752;-58
2021/11/04 04:33:21;;;;;;;68.77;36.30;;;6.10;99.90;;;;;;5078269;28;20466;-59
2021/11/04 04:35:49;;;;;;;65.10;35.93;;;6.00;99.90;;;;;;5078482;28;20495;-59
2021/11/04 04:38:16;;;;;;;68.93;38.03;;;6.10;99.90;;;;;;5078565;28;20520;-58
2021/11/04 04:40:43;;;;;;;65.20;36.20;;;6.10;99.90;;;;;;5078820;28;20436;-57
2021/11/04 04:43:12;;;;;;;63.03;35.87;;;6.00;99.90;;;;;;5078540;28;20457;-60
2021/11/04 04:45:39;;;;;;;64.43;33.57;;;6.00;99.90;;;;;;5078585;28;20956;-60
2021/11/04 04:48:06;;;;;;;61.20;37.20;;;6.00;99.90;;;;;;5078109;28;20522;-60
2021/11/04 04:50:33;;;;;;;61.03;35.40;;;6.00;99.90;;;;;;5078470;28;20436;-59
2021/11/04 04:53:02;;;;;;;56.60;32.60;;;6.10;99.90;;;;;;5078512;28;20503;-60
2021/11/04 04:55:29;;;;;;;73.27;36.80;;;6.00;99.90;;;;;;5077446;28;20461;-59
2021/11/04 04:57:56;;;;;;;58.33;34.63;;;6.10;99.90;;;;;;5077881;28;20803;-58
2021/11/04 05:00:25;;;;;;;58.47;34.10;;;6.10;99.90;;;;;;5079904;28;20464;-59
2021/11/04 05:02:52;;;;;;;65.30;35.60;;;6.10;99.90;;;;;;5098294;28;20439;-58
2021/11/04 05:05:19;;;;;;;63.63;35.27;;;6.10;99.90;;;;;;5098228;28;20461;-60
2021/11/04 05:07:46;;;;;;;63.93;35.27;;;6.10;99.90;;;;;;5078157;28;20517;-56
2021/11/04 05:10:14;;;;;;;56.90;33.47;;;6.10;99.90;;;;;;5078146;28;20466;-59
2021/11/04 05:12:42;;;;;;;57.20;33.37;;;6.00;99.90;;;;;;5078068;28;20476;-59
2021/11/04 05:15:09;;;;;;;61.90;31.73;;;5.90;99.90;;;;;;5077599;28;20467;-58
2021/11/04 05:17:38;;;;;;;57.57;31.63;;;5.90;99.90;;;;;;5077606;28;20464;-59
2021/11/04 05:20:09;;;;;;;51.80;31.77;;;5.90;99.90;;;;;;5077663;28;20476;-59
2021/11/04 05:22:37;;;;;;;59.43;33.13;;;5.90;99.90;;;;;;5078274;28;20452;-59
2021/11/04 05:25:05;;;;;;;60.93;32.30;;;5.90;99.90;;;;;;5076163;28;20461;-60
2021/11/04 05:27:32;;;;;;;58.10;32.50;;;5.90;99.90;;;;;;5075502;28;20457;-59
2021/11/04 05:30:01;;;;;;;63.33;32.43;;;5.90;99.90;;;;;;5076091;28;20461;-58
2021/11/04 05:32:28;;;;;;;61.80;33.70;;;5.90;99.90;;;;;;5077101;28;20915;-59
2021/11/04 05:34:58;;;;;;;57.70;32.40;;;5.90;99.90;;;;;;5077139;28;20530;-59
2021/11/04 05:37:25;;;;;;;56.67;32.10;;;5.80;99.90;;;;;;5077298;28;20465;-58
2021/11/04 05:39:52;;;;;;;56.50;33.27;;;5.80;99.90;;;;;;5077352;28;20948;-60
2021/11/04 05:42:19;;;;;;;61.27;33.80;;;5.80;99.90;;;;;;5077564;28;20468;-60
2021/11/04 05:44:46;;;;;;;53.47;33.17;;;5.70;99.90;;;;;;5077021;28;20465;-60
2021/11/04 05:47:16;;;;;;;57.77;34.27;;;5.70;99.90;;;;;;5077244;28;20461;-60
2021/11/04 05:49:46;;;;;;;63.00;33.23;;;5.70;99.90;;;;;;5077351;28;20458;-60
2021/11/04 05:52:16;;;;;;;64.83;33.43;;;5.80;99.90;;;;;;5077660;28;20465;-60
2021/11/04 05:54:43;;;;;;;64.83;33.60;;;5.80;99.90;;;;;;5077543;28;20465;-60
2021/11/04 05:57:11;;;;;;;60.70;33.33;;;5.80;99.90;;;;;;5077099;28;20886;-60
2021/11/04 05:59:40;;;;;;;68.53;34.83;;;5.80;99.90;;;;;;5077078;28;20467;-60
2021/11/04 06:02:13;;;;;;;59.87;32.40;;;5.70;99.90;;;;;;5093408;28;20456;-57
2021/11/04 06:04:43;;;;;;;57.13;31.83;;;5.70;99.90;;;;;;5097939;28;20480;-59
2021/11/04 06:07:14;;;;;;;60.33;35.90;;;5.80;99.90;;;;;;5082182;28;20809;-59
2021/11/04 06:09:41;;;;;;;58.90;32.47;;;5.70;99.90;;;;;;5077445;28;20457;-60
2021/11/04 06:12:09;;;;;;;57.20;30.57;;;5.70;99.90;;;;;;5077179;28;20468;-60
2021/11/04 06:14:40;;;;;;;54.47;27.97;;;5.70;99.90;;;;;;5077218;28;20517;-60
2021/11/04 06:17:07;;;;;;;54.27;30.50;;;5.60;99.90;;;;;;5071316;28;20760;-60
2021/11/04 06:19:35;;;;;;;65.87;33.40;;;5.70;99.90;;;;;;5073833;28;20467;-59
2021/11/04 06:22:09;;;;;;;61.63;32.80;;;5.80;99.90;;;;;;5076239;28;20807;-59
2021/11/04 06:24:38;;;;;;;63.30;33.47;;;5.80;99.90;;;;;;5075606;28;20761;-60
2021/11/04 06:27:05;;;;;;;60.23;32.67;;;5.80;99.90;;;;;;5076609;28;20471;-59
2021/11/04 06:29:32;;;;;;;63.03;33.50;;;5.70;99.90;;;;;;5076388;28;20768;-60
2021/11/04 06:32:01;;;;;;;57.37;30.70;;;5.80;99.90;;;;;;5076994;28;20510;-60
2021/11/04 06:34:34;;;;;;;60.10;31.53;;;5.90;99.90;;;;;;5076628;28;20829;-60
2021/11/04 06:37:01;;;;;;;54.60;31.07;;;5.90;99.90;;;;;;5077049;28;20601;-60
2021/11/04 06:39:28;;;;;;;60.13;31.80;;;5.70;99.90;;;;;;5076815;28;20493;-60
2021/11/04 06:41:57;;;;;;;69.77;33.60;;;5.80;99.90;;;;;;5076085;28;20763;-60
2021/11/04 06:44:27;;;;;;;67.17;32.43;;;5.80;99.90;;;;;;5075661;28;20825;-60
2021/11/04 06:46:59;;;;;;;69.70;35.17;;;5.90;99.90;;;;;;5076454;28;20964;-60
2021/11/04 06:49:27;;;;;;;60.93;32.90;;;5.90;99.90;;;;;;5075354;28;20767;-60
2021/11/04 06:51:58;;;;;;;66.00;34.20;;;5.80;99.90;;;;;;5074855;28;20477;-60
2021/11/04 06:54:26;;;;;;;61.27;31.57;;;5.80;99.90;;;;;;5073955;28;20563;-60
2021/11/04 06:56:55;;;;;;;63.13;32.23;;;5.80;99.90;;;;;;5075788;28;20884;-60
2021/11/04 06:59:25;;;;;;;68.43;31.53;;;5.90;99.90;;;;;;5075763;28;20951;-60
2021/11/04 07:01:55;;;;;;;65.60;33.00;;;5.90;99.90;;;;;;5075739;28;20476;-60
2021/11/04 07:04:34;;;;;;;68.77;34.63;;;5.90;99.90;;;;;;5076185;28;20982;-60
2021/11/04 07:07:05;;;;;;;76.07;35.80;;;5.90;99.90;;;;;;5076309;28;20539;-60
2021/11/04 07:09:34;;;;;;;65.63;33.07;;;5.90;99.90;;;;;;5076718;28;20887;-60
2021/11/04 07:12:02;;;;;;;81.23;35.47;;;5.90;99.90;;;;;;5076671;28;20461;-60
2021/11/04 07:14:34;;;;;;;61.30;32.10;;;6.00;99.90;;;;;;5076576;28;20465;-61
2021/11/04 07:17:03;;;;;;;66.30;32.60;;;6.00;99.90;;;;;;5076281;28;20511;-60
2021/11/04 07:19:31;;;;;;;71.70;33.53;;;6.10;99.90;;;;;;5078849;28;20538;-60
2021/11/04 07:22:13;;;;;;;66.07;32.93;;;6.00;99.90;;;;;;5079993;28;20572;-60
2021/11/04 07:24:46;;;;;;;70.40;32.23;;;6.10;99.90;;;;;;5080276;28;20507;-60
2021/11/04 07:27:19;;;;;;;71.57;33.60;;;6.10;99.90;;;;;;5080046;28;20485;-60
2021/11/04 07:29:53;;;;;;;71.67;34.60;;;6.20;99.90;;;;;;5079938;28;20920;-60
2021/11/04 07:32:25;;;;;;;68.87;32.20;;;6.30;99.90;;;;;;5079485;28;20461;-60
2021/11/04 07:34:54;;;;;;;67.83;32.27;;;6.20;99.90;;;;;;5079767;28;20467;-60
2021/11/04 07:37:23;;;;;;;68.23;32.33;;;6.30;99.90;;;;;;5079758;28;21045;-60
2021/11/04 07:39:51;;;;;;;78.90;35.40;;;6.20;99.90;;;;;;5079511;28;20519;-60
2021/11/04 07:42:22;;;;;;;71.80;34.20;;;6.30;99.90;;;;;;5078858;28;20464;-60
2021/11/04 07:44:56;;;;;;;69.53;32.20;;;6.30;99.90;;;;;;5078847;28;20468;-60
2021/11/04 07:47:23;;;;;;;79.10;35.40;;;6.40;99.90;;;;;;5078762;28;20511;-59
2021/11/04 07:49:53;;;;;;;62.50;32.67;;;6.40;99.90;;;;;;5079131;28;20461;-60
2021/11/04 07:52:23;;;;;;;72.70;35.90;;;6.50;99.90;;;;;;5079757;28;20558;-60
2021/11/04 07:54:50;;;;;;;71.10;35.20;;;6.50;99.90;;;;;;5079618;28;20883;-60
2021/11/04 07:57:19;;;;;;;69.27;35.40;;;6.60;99.90;;;;;;5079284;28;20594;-58
2021/11/04 07:59:46;;;;;;;65.60;32.70;;;6.60;99.90;;;;;;5078740;28;20478;-59
2021/11/04 08:02:14;;;;;;;71.60;33.50;;;6.60;99.90;;;;;;5078493;28;20457;-58
2021/11/04 08:04:47;;;;;;;73.97;36.10;;;6.70;99.90;;;;;;5078360;28;20469;-60
2021/11/04 08:07:17;;;;;;;64.07;34.07;;;6.70;99.90;;;;;;5078393;28;20464;-60
2021/11/04 08:09:47;;;;;;;77.80;35.40;;;6.60;99.90;;;;;;5078747;28;20481;-60
2021/11/04 08:12:14;;;;;;;74.17;35.07;;;6.60;99.90;;;;;;5079344;28;20949;-61
2021/11/04 08:14:44;;;;;;;67.17;33.87;;;6.70;99.90;;;;;;5079100;28;20811;-61
2021/11/04 08:17:11;;;;;;;71.40;35.10;;;6.70;99.90;;;;;;5078904;28;20457;-60
2021/11/04 08:19:39;;;;;;;65.97;36.30;;;6.70;99.90;;;;;;5078924;28;20493;-61
2021/11/04 08:22:06;;;;;;;74.87;35.10;;;6.80;99.90;;;;;;5078946;28;20465;-60
2021/11/04 08:24:33;;;;;;;66.40;36.33;;;6.80;99.90;;;;;;5078891;28;20435;-60
2021/11/04 08:27:00;;;;;;;68.07;34.17;;;6.90;99.90;;;;;;5078919;28;20804;-60
2021/11/04 08:29:27;;;;;;;64.10;33.90;;;7.00;99.90;;;;;;5078242;28;20457;-58
2021/11/04 08:31:57;;;;;;;65.57;35.80;;;7.00;99.90;;;;;;5078857;28;20898;-60
2021/11/04 08:34:24;;;;;;;68.10;33.30;;;6.90;99.90;;;;;;5078591;28;20515;-59
2021/11/04 08:36:53;;;;;;;67.63;36.97;;;6.90;99.90;;;;;;5079242;28;20463;-60
2021/11/04 08:39:20;;;;;;;72.10;36.47;;;6.80;99.90;;;;;;5078326;28;20492;-61
2021/11/04 08:41:47;;;;;;;72.83;37.30;;;7.00;99.90;;;;;;5078566;28;20952;-60
2021/11/04 08:44:17;;;;;;;70.70;38.07;;;7.00;99.90;;;;;;5078435;28;20465;-60
2021/11/04 08:46:47;;;;;;;81.07;39.40;;;7.20;99.90;;;;;;5078671;28;20949;-61
2021/11/04 08:49:17;;;;;;;77.80;36.53;;;7.20;99.90;;;;;;5078189;28;20937;-61
2021/11/04 08:51:47;;;;;;;65.77;33.57;;;7.20;99.90;;;;;;5078179;28;20895;-61
2021/11/04 08:54:19;;;;;;;61.83;33.47;;;7.20;99.90;;;;;;5077654;28;20461;-60
2021/11/04 08:56:46;;;;;;;65.37;34.50;;;7.10;99.90;;;;;;5078212;28;20493;-60
2021/11/04 08:59:13;;;;;;;68.23;34.17;;;7.20;99.90;;;;;;5077666;28;20550;-60
2021/11/04 09:01:44;;;;;;;69.60;36.20;;;7.10;99.90;;;;;;5077449;28;20793;-60
2021/11/04 09:04:12;;;;;;;73.50;35.87;;;7.10;99.90;;;;;;5077773;28;20457;-59
2021/11/04 09:06:39;;;;;;;80.30;37.67;;;7.00;99.90;;;;;;5078086;28;20462;-58
2021/11/04 09:09:06;;;;;;;79.60;36.70;;;7.00;99.90;;;;;;5077741;28;20981;-60
2021/11/04 09:11:35;;;;;;;79.73;38.37;;;7.10;99.90;;;;;;5077757;28;20886;-60
2021/11/04 09:14:02;;;;;;;74.83;36.07;;;7.00;99.90;;;;;;5077046;28;20511;-60
2021/11/04 09:16:36;;;;;;;90.03;36.77;;;6.90;99.90;;;;;;5077843;28;20514;-60
2021/11/04 09:19:03;;;;;;;65.07;33.20;;;6.90;99.90;;;;;;5078012;28;20525;-60
2021/11/04 09:21:31;;;;;;;70.03;33.87;;;6.80;99.90;;;;;;5077469;28;20591;-56
2021/11/04 09:23:58;;;;;;;73.57;33.93;;;6.80;99.90;;;;;;5077613;28;20476;-60
2021/11/04 09:26:25;;;;;;;70.30;33.03;;;6.90;99.90;;;;;;5077677;28;20497;-60
2021/11/04 09:28:53;;;;;;;60.70;29.47;;;6.90;99.90;;;;;;5077633;28;20515;-60
2021/11/04 09:31:26;;;;;;;57.60;28.50;;;6.80;99.90;;;;;;5077572;28;20903;-59
2021/11/04 09:33:57;;;;;;;59.60;28.20;;;6.80;99.90;;;;;;5077433;28;20907;-60
2021/11/04 09:36:26;;;;;;;51.87;25.63;;;6.70;99.90;;;;;;5077714;28;20530;-60
2021/11/04 09:38:53;;;;;;;61.33;29.87;;;6.70;99.90;;;;;;5077915;28;20888;-59
2021/11/04 09:41:25;;;;;;;53.07;29.30;;;6.70;99.90;;;;;;5076675;28;20465;-60
2021/11/04 09:43:54;;;;;;;68.27;29.80;;;6.70;99.90;;;;;;5077365;28;20461;-60
2021/11/04 09:46:23;;;;;;;63.00;30.00;;;6.90;99.90;;;;;;5077733;28;20899;-60
2021/11/04 09:48:51;;;;;;;63.73;29.40;;;6.90;99.90;;;;;;5077431;28;20468;-60
2021/11/04 09:51:18;;;;;;;48.43;26.40;;;6.90;99.90;;;;;;5076796;28;20467;-60
2021/11/04 09:53:49;;;;;;;49.13;24.93;;;7.00;99.90;;;;;;5077123;28;20465;-60
2021/11/04 09:56:18;;;;;;;42.80;22.17;;;7.00;99.90;;;;;;5077103;28;20508;-60
2021/11/04 09:58:45;;;;;;;42.70;23.57;;;6.90;99.90;;;;;;5077334;28;20463;-60
2021/11/04 10:01:23;;;;;;;34.83;18.67;;;7.00;99.90;;;;;;5076270;28;20547;-61
2021/11/04 10:03:50;;;;;;;32.83;19.70;;;7.00;99.90;;;;;;5077338;28;20898;-60
2021/11/04 10:06:21;;;;;;;35.53;19.77;;;7.10;99.90;;;;;;5076993;28;20474;-60
2021/11/04 10:08:51;;;;;;;31.00;18.17;;;7.30;99.90;;;;;;5077236;28;20897;-60
2021/11/04 10:11:19;;;;;;;33.43;19.33;;;7.40;99.90;;;;;;5077175;28;20970;-60
2021/11/04 10:13:49;;;;;;;39.10;22.20;;;7.30;99.90;;;;;;5077003;28;20468;-60
2021/11/04 10:16:20;;;;;;;39.87;22.67;;;7.40;99.90;;;;;;5076511;28;20829;-59
2021/11/04 10:18:51;;;;;;;43.37;23.30;;;7.40;99.90;;;;;;5077156;28;20461;-60
2021/11/04 10:21:24;;;;;;;43.40;25.00;;;7.50;99.90;;;;;;5076954;28;20495;-59
2021/11/04 10:23:55;;;;;;;42.83;24.57;;;7.40;99.90;;;;;;5077017;28;20470;-60
2021/11/04 10:26:24;;;;;;;53.97;30.83;;;7.50;99.90;;;;;;5076876;28;20461;-59
2021/11/04 10:29:00;;;;;;;56.67;33.17;;;7.40;99.90;;;;;;5077512;28;20465;-59
2021/11/04 10:31:38;;;;;;;64.03;31.83;;;7.30;99.90;;;;;;5076636;28;20460;-60
2021/11/04 10:34:12;;;;;;;61.87;36.10;;;7.30;99.90;;;;;;5077141;28;20514;-59
2021/11/04 10:36:39;;;;;;;72.53;35.63;;;7.30;99.90;;;;;;5076383;28;20512;-60
2021/11/04 10:39:06;;;;;;;71.73;36.23;;;7.30;99.90;;;;;;5076623;28;20906;-60
2021/11/04 10:41:38;;;;;;;72.83;36.87;;;7.40;99.90;;;;;;5076311;28;20546;-60
2021/11/04 10:44:08;;;;;;;72.90;35.47;;;7.40;99.90;;;;;;5077145;28;20541;-59
2021/11/04 10:46:44;;;;;;;73.87;36.47;;;7.30;99.90;;;;;;5076751;28;20457;-60
2021/11/04 10:49:11;;;;;;;79.93;40.80;;;7.20;99.90;;;;;;5076570;28;20461;-60
2021/11/04 10:51:40;;;;;;;89.97;40.47;;;7.20;99.90;;;;;;5076557;28;20461;-59
2021/11/04 10:54:11;;;;;;;83.67;39.57;;;7.30;99.90;;;;;;5079071;28;20765;-59
2021/11/04 10:56:40;;;;;;;80.13;39.07;;;7.40;99.90;;;;;;5081112;28;20522;-60
2021/11/04 10:59:10;;;;;;;83.10;39.93;;;7.40;99.90;;;;;;5079984;28;20501;-60
2021/11/04 11:01:40;;;;;;;76.97;39.03;;;7.30;99.90;;;;;;5091693;28;20483;-60
2021/11/04 11:04:14;;;;;;;69.30;39.30;;;7.40;99.90;;;;;;5100591;28;20460;-60
2021/11/04 11:06:43;;;;;;;75.10;41.17;;;7.50;99.90;;;;;;5089176;28;20457;-57
2021/11/04 11:09:15;;;;;;;73.60;40.20;;;7.40;99.90;;;;;;5080462;28;20526;-57
2021/11/04 11:11:47;;;;;;;67.93;36.83;;;7.50;99.90;;;;;;5079997;28;20551;-58
2021/11/04 11:14:18;;;;;;;68.37;40.00;;;7.60;99.90;;;;;;5080642;28;20461;-59
2021/11/04 11:16:48;;;;;;;65.27;38.77;;;7.60;99.90;;;;;;5080254;28;20457;-59
2021/11/04 11:19:21;;;;;;;59.53;34.70;;;7.70;99.90;;;;;;5079793;28;20506;-58
2021/11/04 11:21:51;;;;;;;71.13;39.37;;;7.80;99.90;;;;;;5079660;28;20456;-59
2021/11/04 11:24:40;;;;;;;64.87;36.80;;;7.80;99.90;;;;;;5078086;28;20457;-58
2021/11/04 11:27:12;;;;;;;58.53;34.40;;;7.80;99.90;;;;;;5078545;28;20435;-59
2021/11/04 11:29:40;;;;;;;60.87;38.30;;;7.80;99.90;;;;;;5079347;28;20736;-59
2021/11/04 11:32:20;;;;;;;60.67;37.27;;;7.90;99.90;;;;;;5079529;28;20454;-60
2021/11/04 11:34:49;;;;;;;58.37;34.67;;;7.80;99.90;;;;;;5079669;28;20968;-57
2021/11/04 11:37:21;;;;;;;60.70;37.17;;;7.80;99.90;;;;;;5079492;28;20899;-56
2021/11/04 11:39:50;;;;;;;63.53;39.27;;;7.80;99.90;;;;;;5079683;28;20492;-59
2021/11/04 11:42:21;;;;;;;58.67;36.87;;;7.70;99.90;;;;;;5078530;28;20457;-57
2021/11/04 11:44:58;;;;;;;61.63;38.30;;;7.80;99.90;;;;;;5079457;28;20461;-60
2021/11/04 11:47:42;;;;;;;62.07;37.00;;;7.70;99.90;;;;;;5079396;28;20465;-59
2021/11/04 11:50:25;;;;;;;54.97;36.00;;;7.80;99.90;;;;;;5079487;28;20465;-58
2021/11/04 11:52:57;;;;;;;56.07;37.03;;;7.80;99.90;;;;;;5078779;28;20461;-60
2021/11/04 11:55:35;;;;;;;53.83;34.60;;;7.80;99.90;;;;;;5079459;28;20507;-57
2021/11/04 11:58:23;;;;;;;55.03;36.73;;;7.90;99.90;;;;;;5079416;28;20465;-55
2021/11/04 12:01:16;;;;;;;45.30;31.80;;;8.00;99.90;;;;;;5079005;28;20503;-60
2021/11/04 12:03:51;;;;;;;50.03;35.57;;;7.90;99.90;;;;;;5079244;28;20532;-59
2021/11/04 12:07:02;;;;;;;51.13;35.87;;;8.00;99.90;;;;;;5078693;28;20464;-59
2021/11/04 12:09:41;;;;;;;51.57;34.63;;;8.00;99.90;;;;;;5079355;28;20453;-58
2021/11/04 12:12:09;;;;;;;48.40;35.17;;;8.00;99.90;;;;;;5079136;28;20468;-60
2021/11/04 12:14:41;;;;;;;54.30;36.53;;;8.00;99.90;;;;;;5079214;28;20467;-60
2021/11/04 12:17:17;;;;;;;55.93;37.67;;;8.10;99.90;;;;;;5078549;28;20883;-59
2021/11/04 12:19:48;;;;;;;50.73;37.60;;;8.20;99.90;;;;;;5079021;28;20500;-60
2021/11/04 12:22:27;;;;;;;56.20;39.77;;;8.30;99.90;;;;;;5078752;28;20451;-60
2021/11/04 12:24:56;;;;;;;59.60;38.57;;;8.30;99.90;;;;;;5078121;28;20457;-59
2021/11/04 12:27:24;;;;;;;60.00;39.00;;;8.00;99.90;;;;;;5078391;28;20469;-58
2021/11/04 12:29:51;;;;;;;60.33;41.30;;;8.10;99.90;;;;;;5078908;28;20465;-60
2021/11/04 12:32:22;;;;;;;59.47;38.30;;;8.20;99.90;;;;;;5078863;28;20439;-60
2021/11/04 12:34:58;;;;;;;52.03;35.37;;;8.40;99.90;;;;;;5079269;28;20525;-60
2021/11/04 12:37:33;;;;;;;57.33;40.37;;;8.50;99.90;;;;;;5078185;28;20503;-57
2021/11/04 12:40:02;;;;;;;54.50;36.70;;;8.70;99.90;;;;;;5078382;28;20510;-59
2021/11/04 12:42:29;;;;;;;50.03;36.00;;;8.70;99.90;;;;;;5078514;28;20469;-59
2021/11/04 12:44:59;;;;;;;55.33;41.20;;;8.80;99.90;;;;;;5078444;28;20461;-59
2021/11/04 12:47:30;;;;;;;57.53;40.53;;;8.90;99.90;;;;;;5078336;28;20469;-58